createdAt,value
2023-05-19T00:02:09.413Z,4.10
2023-05-19T00:04:37.188Z,3.42
2023-05-19T00:07:05.653Z,3.17
2023-05-19T00:09:32.753Z,3.95
2023-05-19T00:12:00.194Z,3.45
2023-05-19T00:14:29.111Z,3.80
2023-05-19T00:16:58.058Z,3.35
2023-05-19T00:19:26.286Z,4.10
2023-05-19T00:21:53.369Z,4.07
2023-05-19T00:24:20.082Z,3.85
2023-05-19T00:26:47.106Z,4.00
2023-05-19T00:29:18.536Z,3.42
2023-05-19T00:31:46.392Z,3.50
2023-05-19T00:34:13.218Z,3.55
2023-05-19T00:36:40.370Z,3.17
2023-05-19T00:39:07.382Z,3.28
2023-05-19T00:41:34.554Z,3.95
2023-05-19T00:44:01.290Z,3.63
2023-05-19T00:46:28.500Z,3.28
2023-05-19T00:48:56.495Z,3.35
2023-05-19T00:51:26.143Z,3.53
2023-05-19T00:53:53.140Z,3.70
2023-05-19T00:56:21.818Z,3.50
2023-05-19T00:58:51.444Z,3.65
2023-05-19T01:01:19.090Z,3.45
2023-05-19T01:03:47.276Z,3.30
2023-05-19T01:06:15.127Z,3.65
2023-05-19T01:08:41.976Z,2.80
2023-05-19T01:11:09.250Z,3.47
2023-05-19T01:13:36.928Z,3.53
2023-05-19T01:16:26.966Z,3.55
2023-05-19T01:19:26.622Z,3.22
2023-05-19T01:22:27.588Z,3.03
2023-05-19T01:25:00.133Z,3.40
2023-05-19T01:27:36.304Z,3.67
2023-05-19T01:30:35.714Z,3.55
2023-05-19T01:33:07.338Z,3.72
2023-05-19T01:35:36.680Z,3.97
2023-05-19T01:38:07.127Z,3.53
2023-05-19T01:40:34.648Z,3.80
2023-05-19T01:43:02.603Z,4.13
2023-05-19T01:45:31.161Z,3.78
2023-05-19T01:48:01.521Z,3.55
2023-05-19T01:50:29.162Z,3.42
2023-05-19T01:52:56.274Z,3.55
2023-05-19T01:55:23.876Z,3.28
2023-05-19T01:57:50.935Z,3.83
2023-05-19T02:00:35.910Z,3.50
2023-05-19T02:03:40.540Z,3.45
2023-05-19T02:06:36.395Z,3.28
2023-05-19T02:09:06.832Z,4.15
2023-05-19T02:11:53.354Z,3.72
2023-05-19T02:14:24.966Z,3.92
2023-05-19T02:16:52.779Z,3.30
2023-05-19T02:19:32.843Z,2.90
2023-05-19T02:22:00.067Z,3.22
2023-05-19T02:24:27.114Z,3.58
2023-05-19T02:26:54.491Z,3.33
2023-05-19T02:29:21.839Z,3.05
2023-05-19T02:31:48.868Z,3.20
2023-05-19T02:34:15.979Z,3.58
2023-05-19T02:36:43.219Z,3.33
2023-05-19T02:39:11.179Z,3.58
2023-05-19T02:41:38.545Z,3.47
2023-05-19T02:44:05.931Z,3.50
2023-05-19T02:46:32.817Z,3.53
2023-05-19T02:48:59.961Z,3.17
2023-05-19T02:51:26.745Z,3.67
2023-05-19T02:53:53.861Z,3.20
2023-05-19T02:56:24.111Z,3.15
2023-05-19T02:58:52.869Z,3.15
2023-05-19T03:01:22.129Z,3.20
2023-05-19T03:03:49.379Z,3.50
2023-05-19T03:06:18.127Z,4.32
2023-05-19T03:08:45.251Z,3.63
2023-05-19T03:11:12.222Z,3.47
2023-05-19T03:13:39.321Z,3.83
2023-05-19T03:16:08.111Z,3.60
2023-05-19T03:18:36.126Z,3.85
2023-05-19T03:21:03.046Z,4.05
2023-05-19T03:23:30.201Z,3.80
2023-05-19T03:25:57.275Z,4.35
2023-05-19T03:28:24.390Z,3.70
2023-05-19T03:30:51.195Z,3.70
2023-05-19T03:33:18.569Z,3.83
2023-05-19T03:35:45.673Z,3.80
2023-05-19T03:38:12.776Z,4.18
2023-05-19T03:40:39.612Z,3.92
2023-05-19T03:43:07.396Z,4.57
2023-05-19T03:45:34.219Z,3.85
2023-05-19T03:48:01.341Z,3.90
2023-05-19T03:50:32.010Z,4.30
2023-05-19T03:52:59.455Z,4.45
2023-05-19T03:55:26.764Z,4.30
2023-05-19T03:57:53.815Z,4.18
2023-05-19T04:00:20.630Z,4.50
2023-05-19T04:02:47.809Z,4.40
2023-05-19T04:05:15.103Z,4.85
2023-05-19T04:07:43.044Z,4.35
2023-05-19T04:10:10.165Z,4.55
2023-05-19T04:12:37.229Z,4.07
2023-05-19T04:15:05.892Z,4.30
2023-05-19T04:17:33.039Z,4.88
2023-05-19T04:20:00.094Z,4.35
2023-05-19T04:22:27.244Z,4.35
2023-05-19T04:24:54.024Z,4.90
2023-05-19T04:27:22.292Z,4.90
2023-05-19T04:29:50.059Z,4.18
2023-05-19T04:32:19.941Z,3.97
2023-05-19T04:34:46.782Z,4.53
2023-05-19T04:37:16.648Z,4.10
2023-05-19T04:39:45.355Z,4.80
2023-05-19T04:42:13.484Z,4.50
2023-05-19T04:44:40.446Z,4.57
2023-05-19T04:47:08.999Z,4.70
2023-05-19T04:49:39.198Z,4.40
2023-05-19T04:52:11.036Z,4.75
2023-05-19T04:54:39.248Z,4.80
2023-05-19T04:57:06.594Z,4.20
2023-05-19T04:59:33.461Z,5.20
2023-05-19T05:02:00.661Z,4.57
2023-05-19T05:04:27.453Z,4.35
2023-05-19T05:06:54.617Z,6.00
2023-05-19T05:09:21.579Z,5.85
2023-05-19T05:11:48.792Z,5.70
2023-05-19T05:14:16.356Z,5.35
2023-05-19T05:16:43.928Z,6.20
2023-05-19T05:19:11.173Z,5.30
2023-05-19T05:21:38.545Z,6.28
2023-05-19T05:24:05.727Z,5.95
2023-05-19T05:26:34.414Z,5.95
2023-05-19T05:29:01.784Z,6.20
2023-05-19T05:31:28.970Z,6.10
2023-05-19T05:33:55.835Z,6.07
2023-05-19T05:36:22.906Z,7.57
2023-05-19T05:38:49.759Z,7.47
2023-05-19T05:41:16.789Z,7.15
2023-05-19T05:43:43.588Z,6.20
2023-05-19T05:46:10.793Z,6.15
2023-05-19T05:48:37.964Z,6.68
2023-05-19T05:51:06.088Z,5.88
2023-05-19T05:53:37.180Z,6.55
2023-05-19T05:56:04.635Z,5.80
2023-05-19T05:58:33.008Z,6.43
2023-05-19T06:01:00.390Z,6.72
2023-05-19T06:03:27.344Z,6.65
2023-05-19T06:05:54.511Z,5.70
2023-05-19T06:08:21.404Z,4.97
2023-05-19T06:10:48.486Z,5.57
2023-05-19T06:13:18.968Z,5.45
2023-05-19T06:15:46.033Z,5.57
2023-05-19T06:18:12.818Z,5.32
2023-05-19T06:20:39.922Z,6.25
2023-05-19T06:23:06.765Z,5.80
2023-05-19T06:25:34.094Z,5.88
2023-05-19T06:28:01.265Z,5.93
2023-05-19T06:30:28.588Z,5.70
2023-05-19T06:32:56.679Z,5.78
2023-05-19T06:35:23.758Z,5.88
2023-05-19T06:37:50.620Z,6.45
2023-05-19T06:40:17.685Z,6.80
2023-05-19T06:42:44.458Z,6.30
2023-05-19T06:45:11.873Z,5.50
2023-05-19T06:47:41.058Z,6.82
2023-05-19T06:50:10.842Z,7.38
2023-05-19T06:52:38.038Z,6.05
2023-05-19T06:55:05.790Z,6.03
2023-05-19T06:57:32.696Z,6.70
2023-05-19T06:59:59.727Z,6.45
2023-05-19T07:02:26.517Z,6.30
2023-05-19T07:04:54.117Z,6.65
2023-05-19T07:07:20.972Z,5.30
2023-05-19T07:09:48.009Z,5.95
2023-05-19T07:12:14.781Z,5.72
2023-05-19T07:14:41.900Z,6.32
2023-05-19T07:17:08.792Z,6.20
2023-05-19T07:19:35.897Z,6.32
2023-05-19T07:22:02.823Z,6.22
2023-05-19T07:24:31.075Z,5.15
2023-05-19T07:26:58.333Z,5.97
2023-05-19T07:29:25.399Z,6.57
2023-05-19T07:31:54.352Z,6.68
2023-05-19T07:34:22.065Z,6.05
2023-05-19T07:36:48.985Z,6.35
2023-05-19T07:39:16.378Z,5.57
2023-05-19T07:41:43.212Z,5.65
2023-05-19T07:44:11.094Z,5.63
2023-05-19T07:46:38.052Z,5.93
2023-05-19T07:49:05.313Z,5.78
2023-05-19T07:51:32.142Z,5.40
2023-05-19T07:53:59.157Z,6.10
2023-05-19T07:56:26.024Z,5.05
2023-05-19T07:58:53.144Z,5.55
2023-05-19T08:01:19.936Z,6.47
2023-05-19T08:03:47.151Z,5.72
2023-05-19T08:06:14.370Z,5.53
2023-05-19T08:08:42.395Z,4.72
2023-05-19T08:11:09.307Z,5.40
2023-05-19T08:13:36.508Z,5.55
2023-05-19T08:16:03.988Z,5.70
2023-05-19T08:18:31.270Z,4.97
2023-05-19T08:20:58.636Z,5.53
2023-05-19T08:23:26.038Z,5.43
2023-05-19T08:25:53.006Z,4.97
2023-05-19T08:28:20.155Z,5.35
2023-05-19T08:30:47.119Z,5.38
2023-05-19T08:33:14.263Z,5.05
2023-05-19T08:35:41.300Z,4.63
2023-05-19T08:38:08.459Z,4.95
2023-05-19T08:40:55.486Z,4.90
2023-05-19T08:43:22.710Z,5.45
2023-05-19T08:45:50.262Z,5.15
2023-05-19T08:48:19.364Z,5.50
2023-05-19T08:51:07.132Z,4.85
2023-05-19T08:53:45.556Z,4.90
2023-05-19T08:56:20.257Z,4.32
2023-05-19T08:58:49.747Z,5.00
2023-05-19T09:01:17.440Z,4.78
2023-05-19T09:03:46.355Z,5.72
2023-05-19T09:06:13.366Z,4.80
2023-05-19T09:08:42.294Z,5.20
2023-05-19T09:11:16.460Z,4.97
2023-05-19T09:13:43.858Z,4.82
2023-05-19T09:16:11.939Z,5.32
2023-05-19T09:18:40.688Z,5.95
2023-05-19T09:21:07.991Z,5.22
2023-05-19T09:23:40.382Z,5.22
2023-05-19T09:29:17.417Z,6.03
2023-05-19T09:32:00.592Z,6.43
2023-05-19T09:34:28.195Z,6.20
2023-05-19T09:36:55.601Z,6.28
2023-05-19T09:39:23.977Z,6.00
2023-05-19T09:41:52.843Z,6.03
2023-05-19T09:44:23.680Z,5.65
2023-05-19T09:49:22.066Z,5.93
2023-05-19T09:51:51.845Z,5.97
2023-05-19T09:54:21.736Z,6.43
2023-05-19T09:57:08.624Z,7.13
2023-05-19T09:59:39.054Z,6.60
2023-05-19T10:02:18.695Z,6.20
2023-05-19T10:04:47.548Z,7.75
2023-05-19T10:07:15.514Z,7.05
2023-05-19T10:09:43.618Z,5.63
2023-05-19T10:12:11.298Z,6.88
2023-05-19T10:14:38.571Z,5.93
2023-05-19T10:17:07.341Z,5.85
2023-05-19T10:19:36.451Z,5.85
2023-05-19T10:22:03.808Z,5.78
2023-05-19T10:24:31.072Z,5.68
2023-05-19T10:27:03.887Z,6.07
2023-05-19T10:29:35.369Z,5.30
2023-05-19T10:32:08.051Z,5.78
2023-05-19T10:34:57.407Z,6.38
2023-05-19T10:38:02.778Z,5.60
2023-05-19T10:40:35.234Z,6.00
2023-05-19T10:43:31.946Z,7.13
2023-05-19T10:45:59.004Z,7.00
2023-05-19T10:48:26.192Z,6.40
2023-05-19T10:50:54.964Z,6.28
2023-05-19T10:53:22.961Z,6.00
2023-05-19T10:55:56.374Z,6.07
2023-05-19T10:58:45.807Z,5.65
2023-05-19T11:01:17.231Z,5.57
2023-05-19T11:03:46.775Z,5.50
2023-05-19T11:06:26.351Z,5.60
2023-05-19T11:09:11.640Z,4.97
2023-05-19T11:11:54.772Z,6.03
2023-05-19T11:14:26.442Z,6.55
2023-05-19T11:16:57.419Z,6.05
2023-05-19T11:19:28.591Z,7.38
2023-05-19T11:21:57.670Z,5.95
2023-05-19T11:24:38.218Z,6.72
2023-05-19T11:27:38.543Z,6.45
2023-05-19T11:30:06.705Z,6.13
2023-05-19T11:32:35.864Z,6.47
2023-05-19T11:35:03.560Z,6.72
2023-05-19T11:37:33.048Z,7.78
2023-05-19T11:40:08.114Z,7.50
2023-05-19T11:42:36.226Z,7.00
2023-05-19T11:45:04.613Z,6.78
2023-05-19T11:47:42.152Z,6.85
2023-05-19T11:50:20.694Z,7.55
2023-05-19T11:52:48.693Z,7.72
2023-05-19T11:55:22.251Z,7.18
2023-05-19T11:58:07.439Z,7.30
2023-05-19T12:00:41.836Z,7.32
2023-05-19T12:03:09.526Z,6.82
2023-05-19T12:05:42.951Z,6.47
2023-05-19T12:08:13.775Z,6.80
2023-05-19T12:10:41.403Z,9.50
2023-05-19T12:13:09.585Z,8.23
2023-05-19T12:15:37.566Z,7.78
2023-05-19T12:18:04.674Z,7.05
2023-05-19T12:20:32.807Z,7.82
2023-05-19T12:23:00.882Z,7.40
2023-05-19T12:25:29.919Z,7.38
2023-05-19T12:28:01.070Z,6.70
2023-05-19T12:30:29.206Z,6.75
2023-05-19T12:32:59.482Z,6.70
2023-05-19T12:35:30.685Z,7.90
2023-05-19T12:38:03.086Z,8.13
2023-05-19T12:40:30.367Z,8.90
2023-05-19T12:42:59.316Z,7.80
2023-05-19T12:45:28.577Z,7.30
2023-05-19T12:47:56.260Z,8.65
2023-05-19T12:50:31.111Z,8.95
2023-05-19T12:52:59.881Z,9.52
2023-05-19T12:55:27.128Z,10.50
2023-05-19T12:57:57.313Z,9.13
2023-05-19T13:00:27.897Z,9.20
2023-05-19T13:03:05.545Z,9.57
2023-05-19T13:05:38.413Z,10.90
2023-05-19T13:08:08.218Z,10.48
2023-05-19T13:10:36.836Z,15.43
2023-05-19T13:13:04.754Z,14.30
2023-05-19T13:15:36.481Z,11.20
2023-05-19T13:18:06.722Z,11.65
2023-05-19T13:20:34.698Z,8.73
2023-05-19T13:23:02.289Z,9.25
2023-05-19T13:25:29.574Z,10.05
2023-05-19T13:27:56.921Z,10.77
2023-05-19T13:30:24.497Z,11.05
2023-05-19T13:32:52.692Z,9.57
2023-05-19T13:35:20.096Z,8.25
2023-05-19T13:37:46.962Z,9.15
2023-05-19T13:40:14.383Z,8.80
2023-05-19T13:42:41.713Z,9.20
2023-05-19T13:45:10.668Z,8.50
2023-05-19T13:47:38.466Z,7.65
2023-05-19T13:50:06.134Z,7.00
2023-05-19T13:52:33.022Z,6.95
2023-05-19T13:55:00.206Z,5.95
2023-05-19T13:57:27.055Z,6.47
2023-05-19T14:00:02.768Z,6.50
2023-05-19T14:02:30.698Z,7.05
2023-05-19T14:04:58.112Z,7.18
2023-05-19T14:07:25.721Z,7.20
2023-05-19T14:09:53.451Z,7.88
2023-05-19T14:12:23.334Z,8.27
2023-05-19T14:14:55.058Z,7.90
2023-05-19T14:17:22.032Z,6.72
2023-05-19T14:19:49.156Z,8.43
2023-05-19T14:22:16.148Z,7.57
2023-05-19T14:24:43.312Z,8.27
2023-05-19T14:27:10.124Z,8.00
2023-05-19T14:29:37.182Z,9.25
2023-05-19T14:32:05.977Z,8.32
2023-05-19T14:34:35.329Z,8.05
2023-05-19T14:37:02.790Z,8.18
2023-05-19T14:39:31.089Z,9.18
2023-05-19T14:41:59.668Z,10.45
2023-05-19T14:44:31.824Z,9.85
2023-05-19T14:47:00.367Z,9.38
2023-05-19T14:49:27.581Z,10.32
2023-05-19T14:51:54.458Z,8.90
2023-05-19T14:54:21.532Z,9.45
2023-05-19T14:56:48.298Z,9.13
2023-05-19T14:59:15.446Z,7.75
2023-05-19T15:01:42.723Z,8.52
2023-05-19T15:04:10.101Z,9.65
2023-05-19T15:06:37.024Z,7.90
2023-05-19T15:09:04.214Z,9.55
2023-05-19T15:11:31.105Z,8.52
2023-05-19T15:13:58.335Z,10.25
2023-05-19T15:16:25.639Z,9.60
2023-05-19T15:18:52.904Z,9.18
2023-05-19T15:21:19.834Z,8.63
2023-05-19T15:23:46.917Z,8.15
2023-05-19T15:26:13.757Z,8.05
2023-05-19T15:28:41.062Z,7.85
2023-05-19T15:31:07.997Z,8.52
2023-05-19T15:33:35.174Z,8.80
2023-05-19T15:36:02.005Z,8.43
2023-05-19T15:38:30.252Z,8.32
2023-05-19T15:40:57.501Z,8.38
2023-05-19T15:43:25.640Z,9.48
2023-05-19T15:45:55.060Z,9.63
2023-05-19T15:48:22.323Z,9.48
2023-05-19T15:50:49.115Z,9.73
2023-05-19T15:53:16.189Z,9.63
2023-05-19T15:55:42.998Z,11.52
2023-05-19T15:58:10.132Z,9.10
2023-05-19T16:00:37.386Z,8.13
2023-05-19T16:03:04.569Z,8.15
2023-05-19T16:05:31.699Z,7.78
2023-05-19T16:08:00.207Z,8.20
2023-05-19T16:10:27.076Z,8.88
2023-05-19T16:12:54.261Z,8.77
2023-05-19T16:15:21.096Z,8.68
2023-05-19T16:17:48.264Z,8.80
2023-05-19T16:20:15.862Z,8.10
2023-05-19T16:22:43.277Z,8.88
2023-05-19T16:25:10.490Z,8.13
2023-05-19T16:27:37.623Z,9.10
2023-05-19T16:30:06.692Z,8.88
2023-05-19T16:32:34.218Z,8.27
2023-05-19T16:35:01.116Z,9.13
2023-05-19T16:37:28.356Z,10.48
2023-05-19T16:39:55.100Z,12.00
2023-05-19T16:42:23.077Z,11.48
2023-05-19T16:44:50.001Z,10.40
2023-05-19T16:47:20.039Z,9.80
2023-05-19T16:49:48.110Z,10.07
2023-05-19T16:52:15.385Z,11.48
2023-05-19T16:54:42.306Z,10.90
2023-05-19T16:57:09.968Z,13.32
2023-05-19T16:59:36.723Z,14.07
2023-05-19T17:02:03.997Z,13.23
2023-05-19T17:04:31.077Z,12.75
2023-05-19T17:06:58.253Z,12.77
2023-05-19T17:09:26.384Z,12.50
2023-05-19T17:11:53.850Z,12.75
2023-05-19T17:14:20.964Z,11.48
2023-05-19T17:16:48.533Z,11.88
2023-05-19T17:19:16.323Z,10.95
2023-05-19T17:21:43.524Z,12.70
2023-05-19T17:24:10.424Z,12.10
2023-05-19T17:26:37.786Z,12.40
2023-05-19T17:29:05.498Z,11.40
2023-05-19T17:31:32.802Z,12.90
2023-05-19T17:33:59.600Z,17.05
2023-05-19T17:36:26.736Z,21.15
2023-05-19T17:38:53.523Z,19.50
2023-05-19T17:41:22.008Z,15.20
2023-05-19T17:43:49.908Z,14.18
2023-05-19T17:46:17.198Z,13.90
2023-05-19T17:48:44.050Z,12.70
2023-05-19T17:51:11.799Z,11.45
2023-05-19T17:53:38.911Z,12.07
2023-05-19T17:56:08.895Z,13.43
2023-05-19T17:58:36.126Z,13.40
2023-05-19T18:01:04.511Z,14.10
2023-05-19T18:03:31.941Z,14.40
2023-05-19T18:06:00.686Z,17.13
2023-05-19T18:08:28.816Z,16.38
2023-05-19T18:10:57.225Z,14.80
2023-05-19T18:13:26.102Z,15.82
2023-05-19T18:15:53.228Z,15.43
2023-05-19T18:18:20.431Z,15.00
2023-05-19T18:20:48.469Z,15.60
2023-05-19T18:23:15.454Z,15.35
2023-05-19T18:25:49.679Z,13.25
2023-05-19T18:28:16.433Z,14.52
2023-05-19T18:30:44.305Z,13.02
2023-05-19T18:33:11.259Z,12.80
2023-05-19T18:35:38.528Z,13.95
2023-05-19T18:38:05.378Z,14.30
2023-05-19T18:40:32.666Z,15.45
2023-05-19T18:42:59.749Z,15.10
2023-05-19T18:45:26.916Z,14.93
2023-05-19T18:47:53.986Z,13.07
2023-05-19T18:50:23.183Z,13.85
2023-05-19T18:52:49.974Z,14.27
2023-05-19T18:55:17.145Z,13.95
2023-05-19T18:57:43.887Z,13.93
2023-05-19T19:00:12.383Z,15.30
2023-05-19T19:02:39.872Z,13.25
2023-05-19T19:05:09.646Z,13.68
2023-05-19T19:07:41.453Z,14.77
2023-05-19T19:10:09.398Z,15.45
2023-05-19T19:12:36.181Z,14.23
2023-05-19T19:15:03.735Z,14.80
2023-05-19T19:17:31.619Z,14.00
2023-05-19T19:19:58.772Z,14.52
2023-05-19T19:22:25.870Z,15.27
2023-05-19T19:24:53.003Z,17.85
2023-05-19T19:27:21.323Z,15.43
2023-05-19T19:29:49.291Z,15.75
2023-05-19T19:32:17.513Z,15.38
2023-05-19T19:34:44.691Z,16.42
2023-05-19T19:37:14.503Z,12.93
2023-05-19T19:39:41.641Z,11.45
2023-05-19T19:42:08.535Z,12.15
2023-05-19T19:44:37.411Z,12.05
2023-05-19T19:47:07.707Z,13.60
2023-05-19T19:49:34.960Z,12.38
2023-05-19T19:52:01.897Z,11.73
2023-05-19T19:54:29.107Z,11.10
2023-05-19T19:56:56.204Z,10.70
2023-05-19T19:59:23.303Z,11.73
2023-05-19T20:01:50.234Z,9.82
2023-05-19T20:04:17.456Z,10.90
2023-05-19T20:06:44.528Z,10.75
2023-05-19T20:09:12.417Z,10.93
2023-05-19T20:11:39.246Z,11.52
2023-05-19T20:14:06.418Z,10.57
2023-05-19T20:16:33.192Z,11.25
2023-05-19T20:19:00.493Z,10.70
2023-05-19T20:21:27.865Z,10.75
2023-05-19T20:23:54.962Z,14.27
2023-05-19T20:26:22.870Z,14.48
2023-05-19T20:28:49.929Z,17.45
2023-05-19T20:31:16.700Z,17.55
2023-05-19T20:33:43.831Z,19.52
2023-05-19T20:36:11.127Z,21.67
2023-05-19T20:38:38.168Z,21.70
2023-05-19T20:41:04.973Z,20.63
2023-05-19T20:43:33.258Z,18.92
2023-05-19T20:46:01.548Z,14.50
2023-05-19T20:48:28.804Z,12.90
2023-05-19T20:50:55.691Z,14.35
2023-05-19T20:53:22.873Z,13.35
2023-05-19T20:55:49.719Z,13.07
2023-05-19T20:58:16.948Z,12.75
2023-05-19T21:00:43.770Z,13.00
2023-05-19T21:03:11.663Z,12.38
2023-05-19T21:05:38.678Z,11.85
2023-05-19T21:08:05.938Z,12.18
2023-05-19T21:10:32.959Z,12.32
2023-05-19T21:13:00.239Z,11.20
2023-05-19T21:15:27.279Z,13.38
2023-05-19T21:17:54.408Z,12.40
2023-05-19T21:20:21.319Z,13.43
2023-05-19T21:22:48.924Z,14.77
2023-05-19T21:25:17.102Z,13.68
2023-05-19T21:27:46.329Z,13.70
2023-05-19T21:30:14.171Z,12.23
2023-05-19T21:32:41.387Z,12.18
2023-05-19T21:35:08.806Z,12.57
2023-05-19T21:37:36.760Z,11.98
2023-05-19T21:40:04.785Z,13.30
2023-05-19T21:42:31.938Z,12.90
2023-05-19T21:44:58.720Z,13.23
2023-05-19T21:47:25.952Z,13.10
2023-05-19T21:49:53.215Z,13.88
2023-05-19T21:52:20.575Z,12.85
2023-05-19T21:54:48.046Z,13.50
2023-05-19T21:57:15.174Z,13.25
2023-05-19T21:59:42.028Z,12.98
2023-05-19T22:02:09.167Z,12.73
2023-05-19T22:04:36.264Z,13.10
2023-05-19T22:07:03.371Z,12.77
2023-05-19T22:09:30.301Z,13.23
2023-05-19T22:11:57.395Z,12.77
2023-05-19T22:14:24.255Z,13.88
2023-05-19T22:16:51.388Z,13.90
2023-05-19T22:19:18.332Z,13.00
2023-05-19T22:21:45.435Z,15.15
2023-05-19T22:24:12.260Z,13.93
2023-05-19T22:26:42.717Z,13.07
2023-05-19T22:29:14.986Z,14.48
2023-05-19T22:31:42.150Z,14.25
2023-05-19T22:34:09.024Z,13.73
2023-05-19T22:36:36.141Z,14.10
2023-05-19T22:39:02.964Z,14.25
2023-05-19T22:41:30.153Z,14.45
2023-05-19T22:43:56.920Z,16.48
2023-05-19T22:46:24.040Z,15.57
2023-05-19T22:48:50.943Z,15.38
2023-05-19T22:51:18.189Z,15.63
2023-05-19T22:53:46.631Z,14.95
2023-05-19T22:56:13.696Z,14.02
2023-05-19T22:58:40.588Z,15.05
2023-05-19T23:01:07.711Z,14.50
2023-05-19T23:03:34.514Z,16.15
2023-05-19T23:06:01.895Z,19.13
2023-05-19T23:08:28.703Z,18.95
2023-05-19T23:11:00.623Z,19.60
2023-05-19T23:13:27.444Z,19.13
2023-05-19T23:15:54.475Z,19.67
2023-05-19T23:18:21.277Z,21.55
2023-05-19T23:20:48.307Z,21.58
2023-05-19T23:23:16.054Z,20.40
2023-05-19T23:25:43.110Z,18.48
2023-05-19T23:28:10.991Z,19.48
2023-05-19T23:30:38.242Z,19.42
2023-05-19T23:33:05.261Z,18.05
2023-05-19T23:35:32.475Z,17.98
2023-05-19T23:37:59.391Z,16.73
2023-05-19T23:40:26.645Z,15.55
2023-05-19T23:42:53.520Z,14.23
2023-05-19T23:45:20.650Z,15.30
2023-05-19T23:47:47.436Z,15.50
2023-05-19T23:50:14.516Z,14.18
2023-05-19T23:52:41.398Z,14.52
2023-05-19T23:55:08.714Z,12.70
2023-05-19T23:57:35.534Z,14.48
